Meteo Giornale » Osservazioni meteo Svezia » Trollhattan Private
ore: 21:50 - Osservazioni Meteo Trollhattan Private
Lat. 58° 19' N Lon. 12° 21' E Alt. 41 metri s.l.m.
14 °C
Molto Nuvoloso
Temp. 24 Ore
12 °C
21 °C
Sud
9.3 Km/h
Dew point 13 °C
Umidità 93 %
Visibilità 10 Km
Il sole sorge alle ore 06:10
Il sole tramonta alle ore 20:11
| Data e Ora | Cielo e Fenomeni | T °C | DP °C | Um. % | Pres. hPa | Vis. km | Vento km/h | |
|---|---|---|---|---|---|---|---|---|
| Oggi h: 21:50 | Molto Nuvoloso | 14 | 13 | 93 | 1010 | 10 | S 9.3 | |
| Oggi h: 21:20 | Poco Nuvoloso | 14 | 12 | 87 | 1010 | 10 | S/SO 11.1 | |
| Oggi h: 20:50 | Poco Nuvoloso | 15 | 13 | 87 | 1010 | 10 | S/SO 11.1 | |
| Oggi h: 20:20 | Nuvoloso | 16 | 12 | 77 | 1010 | 10 | SO 16.7 | |
| Oggi h: 19:50 | Coperto | 16 | 12 | 77 | 1010 | 10 | SO 18.5 | |
| Oggi h: 19:20 | Coperto | 17 | 12 | 72 | 1010 | 10 | SO 18.5 | |
| Oggi h: 18:50 | Poco Nuvoloso | 17 | 12 | 72 | 1010 | 10 | SO 20.3 | |
| Oggi h: 18:20 | Poco Nuvoloso | 18 | 12 | 67 | 1010 | 10 | SO 22.2 | |
| Oggi h: 17:50 | Poco Nuvoloso | 19 | 12 | 63 | 1009 | 10 | SO 20.3 | |
| Oggi h: 17:20 | Poco Nuvoloso | 19 | 12 | 63 | 1009 | 10 | SO 22.2 | |
| Oggi h: 16:50 | Poco Nuvoloso | 19 | 13 | 68 | 1009 | 10 | S/SO 18.5 | |
| Oggi h: 16:20 | Nuvoloso | 19 | 12 | 63 | 1009 | 10 | O/SO 20.3 | |
| Oggi h: 15:50 | Poco Nuvoloso | 20 | 12 | 59 | 1009 | 10 | O/SO 20.3 | |
| Oggi h: 15:20 | Poco Nuvoloso | 20 | 13 | 64 | 1009 | 10 | SO 20.3 | |
| Oggi h: 14:50 | Poco Nuvoloso | 20 | 13 | 64 | 1009 | 10 | SO 18.5 | |
| Oggi h: 14:20 | Nuvoloso | 21 | 13 | 60 | 1009 | 10 | SO 16.7 | |
| Oggi h: 13:50 | Pioggia | 20 | 13 | 64 | 1009 | 10 | O/SO 14.8 | |
| Oggi h: 13:20 | Nuvoloso | 20 | 13 | 64 | 1009 | 10 | S/SO 13 | |
| Oggi h: 12:50 | Nuvoloso | 20 | 14 | 68 | 1009 | 10 | S/SE 13 | |
| Oggi h: 12:20 | Nuvoloso | 18 | 14 | 77 | 1009 | 10 | S 9.3 | |
| Oggi h: 11:50 | Nuvoloso | 18 | 14 | 77 | 1009 | 10 | S/SE 9.3 | |
| Oggi h: 11:20 | Nuvoloso | 17 | 14 | 82 | 1009 | 10 | SE 9.3 | |
| Oggi h: 10:50 | Molto Nuvoloso | 15 | 14 | 93 | 1009 | 10 | N 5.5 | |
| Oggi h: 10:20 | Molto Nuvoloso | 16 | 14 | 87 | 1009 | 10 | S 9.3 | |
| Oggi h: 09:50 | Molto Nuvoloso | 15 | 13 | 87 | 1009 | 10 | N 5.5 | |
| Oggi h: 09:20 | Molto Nuvoloso | 14 | 14 | 100 | 1008 | 10 | N 5.5 | |
| Oggi h: 08:50 | Molto Nuvoloso | 14 | 14 | 100 | 1008 | 10 | N 3.7 | |
| Oggi h: 08:20 | Foschia | 14 | 13 | 93 | 1008 | 7 | N 1.8 | |
| Oggi h: 07:50 | Nebbia | 13 | 13 | 100 | 1008 | 0.15 | N 0 | |
| Oggi h: 07:20 | Nebbia | 13 | 13 | 100 | 1008 | 0.1 | N 1.8 | |
| Oggi h: 06:50 | Nebbia | 12 | 12 | 100 | 1008 | 0.2 | N 0 | |
| Oggi h: 06:20 | Nebbia | 12 | 12 | 100 | 1007 | 0.25 | N 3.7 | |



